Nashville, North Carolina
Current Conditions -  °F | °C
As of 4:53 AM on Wednesday 22 Oct 2014 (Local Time) from KRWI Reporting Station
Overcast Overcast  
Wind Chill: 51°   Ceiling: 8500
Heat Index: 51°   Visibility: 10mi
Dew Point: 47°   Wind: 6mph
Humidity: 86%   Direction: 330°NNW
Pressure: 29.9"   Gusts: NA
Location:  35.97°N, 77.97°W
Report Text: KRWI 220853Z AUTO 33005KT 10SM FEW016 SCT045 OVC085 11/08 A2990 RMK AO2 RAB37E53 SLP124 P0000 60000 T01060083 50001
Loading
Personal Weather Stations






























Interactive Weather Map
Tropical Storm Tracking
New forecast layout! Learn more

10-Day Weather Forecast

Advertisements
Track Severe Weather on mobile